sensor_id;sensor_type;location;lat;lon;timestamp;P1;durP1;ratioP1;P2;durP2;ratioP2
6089;SDS011;3073;42.660;23.316;2023-04-15T00:00:16;13.07;;;4.03;;
6089;SDS011;3073;42.660;23.316;2023-04-15T00:02:44;8.13;;;4.30;;
6089;SDS011;3073;42.660;23.316;2023-04-15T00:05:11;13.23;;;5.37;;
6089;SDS011;3073;42.660;23.316;2023-04-15T00:07:37;8.93;;;4.87;;
6089;SDS011;3073;42.660;23.316;2023-04-15T00:10:05;6.90;;;4.20;;
6089;SDS011;3073;42.660;23.316;2023-04-15T00:12:50;9.80;;;3.93;;
6089;SDS011;3073;42.660;23.316;2023-04-15T00:15:17;7.40;;;4.50;;
6089;SDS011;3073;42.660;23.316;2023-04-15T00:17:45;12.83;;;5.03;;
6089;SDS011;3073;42.660;23.316;2023-04-15T00:20:12;12.00;;;6.00;;
6089;SDS011;3073;42.660;23.316;2023-04-15T00:22:40;17.80;;;5.70;;
6089;SDS011;3073;42.660;23.316;2023-04-15T00:25:07;9.27;;;5.17;;
6089;SDS011;3073;42.660;23.316;2023-04-15T00:27:34;13.47;;;6.17;;
6089;SDS011;3073;42.660;23.316;2023-04-15T00:30:03;15.03;;;5.57;;
6089;SDS011;3073;42.660;23.316;2023-04-15T00:32:31;13.43;;;5.83;;
6089;SDS011;3073;42.660;23.316;2023-04-15T00:34:58;9.30;;;5.30;;
6089;SDS011;3073;42.660;23.316;2023-04-15T00:37:25;8.30;;;5.03;;
6089;SDS011;3073;42.660;23.316;2023-04-15T00:39:51;9.10;;;5.20;;
6089;SDS011;3073;42.660;23.316;2023-04-15T00:42:18;9.43;;;5.67;;
6089;SDS011;3073;42.660;23.316;2023-04-15T00:44:46;9.30;;;4.80;;
6089;SDS011;3073;42.660;23.316;2023-04-15T00:47:15;16.40;;;5.37;;
6089;SDS011;3073;42.660;23.316;2023-04-15T00:49:43;9.90;;;5.47;;
6089;SDS011;3073;42.660;23.316;2023-04-15T00:52:10;9.20;;;5.50;;
6089;SDS011;3073;42.660;23.316;2023-04-15T00:54:37;13.10;;;5.40;;
6089;SDS011;3073;42.660;23.316;2023-04-15T00:57:04;13.73;;;5.73;;
6089;SDS011;3073;42.660;23.316;2023-04-15T00:59:31;22.93;;;5.00;;
6089;SDS011;3073;42.660;23.316;2023-04-15T01:01:59;11.00;;;5.53;;
6089;SDS011;3073;42.660;23.316;2023-04-15T01:04:27;13.13;;;4.10;;
6089;SDS011;3073;42.660;23.316;2023-04-15T01:06:56;10.43;;;4.80;;
6089;SDS011;3073;42.660;23.316;2023-04-15T01:09:22;12.67;;;5.10;;
6089;SDS011;3073;42.660;23.316;2023-04-15T01:11:49;8.20;;;5.03;;
6089;SDS011;3073;42.660;23.316;2023-04-15T01:14:16;9.97;;;5.50;;
6089;SDS011;3073;42.660;23.316;2023-04-15T01:16:43;8.40;;;4.87;;
6089;SDS011;3073;42.660;23.316;2023-04-15T01:19:11;13.70;;;5.27;;
6089;SDS011;3073;42.660;23.316;2023-04-15T01:21:43;10.17;;;5.40;;
6089;SDS011;3073;42.660;23.316;2023-04-15T01:24:11;9.60;;;4.37;;
6089;SDS011;3073;42.660;23.316;2023-04-15T01:26:43;16.40;;;5.03;;
6089;SDS011;3073;42.660;23.316;2023-04-15T01:29:10;7.93;;;4.80;;
6089;SDS011;3073;42.660;23.316;2023-04-15T01:31:37;9.27;;;4.93;;
6089;SDS011;3073;42.660;23.316;2023-04-15T01:34:04;9.63;;;5.50;;
6089;SDS011;3073;42.660;23.316;2023-04-15T01:36:31;7.97;;;5.00;;
6089;SDS011;3073;42.660;23.316;2023-04-15T01:38:59;10.90;;;4.73;;
6089;SDS011;3073;42.660;23.316;2023-04-15T01:41:26;8.30;;;5.27;;
6089;SDS011;3073;42.660;23.316;2023-04-15T01:43:55;11.17;;;5.40;;
6089;SDS011;3073;42.660;23.316;2023-04-15T01:46:22;7.83;;;4.90;;
6089;SDS011;3073;42.660;23.316;2023-04-15T01:48:49;13.83;;;5.53;;
6089;SDS011;3073;42.660;23.316;2023-04-15T01:51:16;9.00;;;4.80;;
6089;SDS011;3073;42.660;23.316;2023-04-15T01:53:43;10.50;;;5.43;;
6089;SDS011;3073;42.660;23.316;2023-04-15T01:56:10;10.00;;;5.27;;
6089;SDS011;3073;42.660;23.316;2023-04-15T01:58:37;7.50;;;4.57;;
6089;SDS011;3073;42.660;23.316;2023-04-15T02:01:05;10.63;;;4.70;;
6089;SDS011;3073;42.660;23.316;2023-04-15T02:03:34;10.93;;;4.90;;
6089;SDS011;3073;42.660;23.316;2023-04-15T02:06:01;10.83;;;5.77;;
6089;SDS011;3073;42.660;23.316;2023-04-15T02:08:28;8.10;;;4.40;;
6089;SDS011;3073;42.660;23.316;2023-04-15T02:10:55;7.73;;;4.67;;
6089;SDS011;3073;42.660;23.316;2023-04-15T02:13:22;9.03;;;4.83;;
6089;SDS011;3073;42.660;23.316;2023-04-15T02:15:49;6.83;;;4.80;;
6089;SDS011;3073;42.660;23.316;2023-04-15T02:18:18;8.90;;;4.90;;
6089;SDS011;3073;42.660;23.316;2023-04-15T02:20:45;8.70;;;4.63;;
6089;SDS011;3073;42.660;23.316;2023-04-15T02:23:12;9.17;;;4.60;;
6089;SDS011;3073;42.660;23.316;2023-04-15T02:25:39;8.47;;;4.60;;
6089;SDS011;3073;42.660;23.316;2023-04-15T02:28:06;8.47;;;4.97;;
6089;SDS011;3073;42.660;23.316;2023-04-15T02:30:33;7.97;;;4.63;;
6089;SDS011;3073;42.660;23.316;2023-04-15T02:33:00;8.00;;;4.67;;
6089;SDS011;3073;42.660;23.316;2023-04-15T02:35:29;12.57;;;5.70;;
6089;SDS011;3073;42.660;23.316;2023-04-15T02:37:56;9.53;;;5.50;;
6089;SDS011;3073;42.660;23.316;2023-04-15T02:40:23;7.67;;;5.40;;
6089;SDS011;3073;42.660;23.316;2023-04-15T02:42:50;8.70;;;5.40;;
6089;SDS011;3073;42.660;23.316;2023-04-15T02:45:16;16.40;;;4.93;;
6089;SDS011;3073;42.660;23.316;2023-04-15T02:47:47;9.83;;;4.70;;
6089;SDS011;3073;42.660;23.316;2023-04-15T02:50:15;8.10;;;4.70;;
6089;SDS011;3073;42.660;23.316;2023-04-15T02:52:43;9.00;;;4.87;;
6089;SDS011;3073;42.660;23.316;2023-04-15T02:55:10;13.43;;;4.70;;
6089;SDS011;3073;42.660;23.316;2023-04-15T02:57:37;8.30;;;5.20;;
6089;SDS011;3073;42.660;23.316;2023-04-15T03:00:05;8.07;;;4.23;;
6089;SDS011;3073;42.660;23.316;2023-04-15T03:02:34;10.23;;;5.23;;
6089;SDS011;3073;42.660;23.316;2023-04-15T03:05:01;8.60;;;4.57;;
6089;SDS011;3073;42.660;23.316;2023-04-15T03:07:28;7.43;;;4.63;;
6089;SDS011;3073;42.660;23.316;2023-04-15T03:09:57;9.77;;;5.80;;
6089;SDS011;3073;42.660;23.316;2023-04-15T03:12:24;11.53;;;5.53;;
6089;SDS011;3073;42.660;23.316;2023-04-15T03:14:51;10.13;;;5.50;;
6089;SDS011;3073;42.660;23.316;2023-04-15T03:17:17;13.40;;;6.53;;
6089;SDS011;3073;42.660;23.316;2023-04-15T03:19:44;7.60;;;5.20;;
6089;SDS011;3073;42.660;23.316;2023-04-15T03:22:11;11.03;;;5.57;;
6089;SDS011;3073;42.660;23.316;2023-04-15T03:24:38;11.80;;;6.20;;
6089;SDS011;3073;42.660;23.316;2023-04-15T03:27:06;14.20;;;5.00;;
6089;SDS011;3073;42.660;23.316;2023-04-15T03:29:33;11.13;;;5.20;;
6089;SDS011;3073;42.660;23.316;2023-04-15T03:32:00;9.43;;;5.13;;
6089;SDS011;3073;42.660;23.316;2023-04-15T03:34:30;9.93;;;6.20;;
6089;SDS011;3073;42.660;23.316;2023-04-15T03:36:57;11.13;;;5.50;;
6089;SDS011;3073;42.660;23.316;2023-04-15T03:39:23;9.03;;;6.07;;
6089;SDS011;3073;42.660;23.316;2023-04-15T03:41:51;9.47;;;6.10;;
6089;SDS011;3073;42.660;23.316;2023-04-15T03:44:19;9.67;;;6.20;;
6089;SDS011;3073;42.660;23.316;2023-04-15T03:46:46;16.90;;;7.27;;
6089;SDS011;3073;42.660;23.316;2023-04-15T03:49:13;12.23;;;6.87;;
6089;SDS011;3073;42.660;23.316;2023-04-15T03:51:40;14.80;;;7.17;;
6089;SDS011;3073;42.660;23.316;2023-04-15T03:54:07;12.13;;;7.20;;
6089;SDS011;3073;42.660;23.316;2023-04-15T03:56:34;9.80;;;5.50;;
6089;SDS011;3073;42.660;23.316;2023-04-15T03:59:00;8.70;;;5.60;;
6089;SDS011;3073;42.660;23.316;2023-04-15T04:01:29;14.57;;;7.40;;
6089;SDS011;3073;42.660;23.316;2023-04-15T04:03:58;13.67;;;6.90;;
6089;SDS011;3073;42.660;23.316;2023-04-15T04:06:25;15.43;;;8.93;;
6089;SDS011;3073;42.660;23.316;2023-04-15T04:08:52;13.77;;;7.87;;
6089;SDS011;3073;42.660;23.316;2023-04-15T04:11:18;12.00;;;7.70;;
6089;SDS011;3073;42.660;23.316;2023-04-15T04:13:45;11.03;;;7.90;;
6089;SDS011;3073;42.660;23.316;2023-04-15T04:16:12;14.37;;;8.13;;
6089;SDS011;3073;42.660;23.316;2023-04-15T04:18:40;23.10;;;9.23;;
6089;SDS011;3073;42.660;23.316;2023-04-15T04:21:07;18.00;;;9.70;;
6089;SDS011;3073;42.660;23.316;2023-04-15T04:23:34;14.27;;;8.47;;
6089;SDS011;3073;42.660;23.316;2023-04-15T04:26:01;26.63;;;14.97;;
6089;SDS011;3073;42.660;23.316;2023-04-15T04:28:28;15.33;;;7.90;;
6089;SDS011;3073;42.660;23.316;2023-04-15T04:30:55;24.67;;;6.50;;
6089;SDS011;3073;42.660;23.316;2023-04-15T04:33:21;13.47;;;6.80;;
6089;SDS011;3073;42.660;23.316;2023-04-15T04:35:50;14.60;;;7.70;;
6089;SDS011;3073;42.660;23.316;2023-04-15T04:38:17;10.40;;;6.53;;
6089;SDS011;3073;42.660;23.316;2023-04-15T04:40:43;10.90;;;6.30;;
6089;SDS011;3073;42.660;23.316;2023-04-15T04:43:11;16.80;;;6.67;;
6089;SDS011;3073;42.660;23.316;2023-04-15T04:45:39;10.50;;;6.83;;
6089;SDS011;3073;42.660;23.316;2023-04-15T04:48:06;14.20;;;6.20;;
6089;SDS011;3073;42.660;23.316;2023-04-15T04:50:34;9.80;;;5.90;;
6089;SDS011;3073;42.660;23.316;2023-04-15T04:53:02;11.73;;;6.50;;
6089;SDS011;3073;42.660;23.316;2023-04-15T04:55:29;16.23;;;7.33;;
6089;SDS011;3073;42.660;23.316;2023-04-15T04:57:56;10.93;;;7.03;;
6089;SDS011;3073;42.660;23.316;2023-04-15T05:00:23;13.73;;;7.77;;
6089;SDS011;3073;42.660;23.316;2023-04-15T05:02:50;15.93;;;7.60;;
6089;SDS011;3073;42.660;23.316;2023-04-15T05:05:17;16.00;;;7.87;;
6089;SDS011;3073;42.660;23.316;2023-04-15T05:07:44;13.20;;;7.50;;
6089;SDS011;3073;42.660;23.316;2023-04-15T05:10:12;16.63;;;7.97;;
6089;SDS011;3073;42.660;23.316;2023-04-15T05:12:41;25.87;;;7.60;;
6089;SDS011;3073;42.660;23.316;2023-04-15T05:15:08;12.03;;;7.67;;
6089;SDS011;3073;42.660;23.316;2023-04-15T05:17:36;15.83;;;7.47;;
6089;SDS011;3073;42.660;23.316;2023-04-15T05:20:03;11.00;;;7.00;;
6089;SDS011;3073;42.660;23.316;2023-04-15T05:22:31;16.13;;;6.90;;
6089;SDS011;3073;42.660;23.316;2023-04-15T05:24:57;10.20;;;6.67;;
6089;SDS011;3073;42.660;23.316;2023-04-15T05:27:26;10.77;;;6.97;;
6089;SDS011;3073;42.660;23.316;2023-04-15T05:29:53;9.50;;;5.93;;
6089;SDS011;3073;42.660;23.316;2023-04-15T05:32:20;10.57;;;6.20;;
6089;SDS011;3073;42.660;23.316;2023-04-15T05:34:47;12.87;;;7.20;;
6089;SDS011;3073;42.660;23.316;2023-04-15T05:37:14;11.27;;;7.60;;
6089;SDS011;3073;42.660;23.316;2023-04-15T05:39:41;14.60;;;7.10;;
6089;SDS011;3073;42.660;23.316;2023-04-15T05:42:08;10.20;;;7.40;;
6089;SDS011;3073;42.660;23.316;2023-04-15T05:44:36;8.30;;;6.20;;
6089;SDS011;3073;42.660;23.316;2023-04-15T05:47:03;8.97;;;5.50;;
6089;SDS011;3073;42.660;23.316;2023-04-15T05:49:31;9.10;;;6.10;;
6089;SDS011;3073;42.660;23.316;2023-04-15T05:51:58;15.43;;;6.40;;
6089;SDS011;3073;42.660;23.316;2023-04-15T05:54:25;9.90;;;6.20;;
6089;SDS011;3073;42.660;23.316;2023-04-15T05:56:52;13.80;;;6.50;;
6089;SDS011;3073;42.660;23.316;2023-04-15T05:59:18;10.40;;;5.37;;
6089;SDS011;3073;42.660;23.316;2023-04-15T06:01:47;9.80;;;4.43;;
6089;SDS011;3073;42.660;23.316;2023-04-15T06:04:16;7.80;;;3.80;;
6089;SDS011;3073;42.660;23.316;2023-04-15T06:06:42;7.53;;;4.57;;
6089;SDS011;3073;42.660;23.316;2023-04-15T06:09:09;11.50;;;5.10;;
6089;SDS011;3073;42.660;23.316;2023-04-15T06:11:36;13.30;;;5.10;;
6089;SDS011;3073;42.660;23.316;2023-04-15T06:14:03;9.17;;;5.83;;
6089;SDS011;3073;42.660;23.316;2023-04-15T06:16:30;17.10;;;6.57;;
6089;SDS011;3073;42.660;23.316;2023-04-15T06:18:58;10.00;;;6.23;;
6089;SDS011;3073;42.660;23.316;2023-04-15T06:21:25;12.67;;;6.90;;
6089;SDS011;3073;42.660;23.316;2023-04-15T06:23:52;10.13;;;6.20;;
6089;SDS011;3073;42.660;23.316;2023-04-15T06:26:20;7.43;;;4.40;;
6089;SDS011;3073;42.660;23.316;2023-04-15T06:28:47;10.87;;;5.33;;
6089;SDS011;3073;42.660;23.316;2023-04-15T06:31:14;10.13;;;5.10;;
6089;SDS011;3073;42.660;23.316;2023-04-15T06:33:41;8.80;;;4.60;;
6089;SDS011;3073;42.660;23.316;2023-04-15T06:36:09;12.63;;;5.13;;
6089;SDS011;3073;42.660;23.316;2023-04-15T06:38:36;10.33;;;5.60;;
6089;SDS011;3073;42.660;23.316;2023-04-15T06:41:03;13.47;;;4.67;;
6089;SDS011;3073;42.660;23.316;2023-04-15T06:43:30;8.37;;;5.13;;
6089;SDS011;3073;42.660;23.316;2023-04-15T06:45:57;8.13;;;4.70;;
6089;SDS011;3073;42.660;23.316;2023-04-15T06:48:24;9.73;;;5.47;;
6089;SDS011;3073;42.660;23.316;2023-04-15T06:50:51;6.67;;;5.00;;
6089;SDS011;3073;42.660;23.316;2023-04-15T06:53:19;9.70;;;5.60;;
6089;SDS011;3073;42.660;23.316;2023-04-15T06:55:47;8.53;;;5.07;;
6089;SDS011;3073;42.660;23.316;2023-04-15T06:58:14;7.70;;;4.73;;
6089;SDS011;3073;42.660;23.316;2023-04-15T07:00:41;10.57;;;5.80;;
6089;SDS011;3073;42.660;23.316;2023-04-15T07:03:09;9.57;;;5.47;;
6089;SDS011;3073;42.660;23.316;2023-04-15T07:05:36;10.70;;;5.30;;
6089;SDS011;3073;42.660;23.316;2023-04-15T07:08:03;10.60;;;5.97;;
6089;SDS011;3073;42.660;23.316;2023-04-15T07:10:32;13.17;;;5.90;;
6089;SDS011;3073;42.660;23.316;2023-04-15T07:12:59;9.77;;;5.17;;
6089;SDS011;3073;42.660;23.316;2023-04-15T07:15:26;9.00;;;5.17;;
6089;SDS011;3073;42.660;23.316;2023-04-15T07:17:53;12.27;;;5.30;;
6089;SDS011;3073;42.660;23.316;2023-04-15T07:20:20;15.03;;;6.17;;
6089;SDS011;3073;42.660;23.316;2023-04-15T07:22:47;6.93;;;4.63;;
6089;SDS011;3073;42.660;23.316;2023-04-15T07:25:14;8.97;;;5.73;;
6089;SDS011;3073;42.660;23.316;2023-04-15T07:27:43;11.53;;;5.57;;
6089;SDS011;3073;42.660;23.316;2023-04-15T07:30:10;10.17;;;5.30;;
6089;SDS011;3073;42.660;23.316;2023-04-15T07:32:38;10.03;;;5.20;;
6089;SDS011;3073;42.660;23.316;2023-04-15T07:35:05;8.30;;;5.27;;
6089;SDS011;3073;42.660;23.316;2023-04-15T07:37:32;12.80;;;4.93;;
6089;SDS011;3073;42.660;23.316;2023-04-15T07:39:59;9.30;;;4.60;;
6089;SDS011;3073;42.660;23.316;2023-04-15T07:42:26;12.10;;;5.23;;
6089;SDS011;3073;42.660;23.316;2023-04-15T07:44:54;9.60;;;5.07;;
6089;SDS011;3073;42.660;23.316;2023-04-15T07:47:22;7.00;;;4.30;;
6089;SDS011;3073;42.660;23.316;2023-04-15T07:49:48;9.50;;;4.40;;
6089;SDS011;3073;42.660;23.316;2023-04-15T07:52:16;11.10;;;5.10;;
6089;SDS011;3073;42.660;23.316;2023-04-15T07:54:43;12.17;;;4.20;;
6089;SDS011;3073;42.660;23.316;2023-04-15T07:57:11;10.83;;;4.90;;
6089;SDS011;3073;42.660;23.316;2023-04-15T07:59:37;8.23;;;4.20;;
6089;SDS011;3073;42.660;23.316;2023-04-15T08:02:06;6.60;;;3.30;;
6089;SDS011;3073;42.660;23.316;2023-04-15T08:04:34;7.17;;;3.80;;
6089;SDS011;3073;42.660;23.316;2023-04-15T08:07:00;5.57;;;4.10;;
6089;SDS011;3073;42.660;23.316;2023-04-15T08:09:28;17.40;;;4.07;;
6089;SDS011;3073;42.660;23.316;2023-04-15T08:11:55;13.00;;;3.30;;
6089;SDS011;3073;42.660;23.316;2023-04-15T08:14:23;7.43;;;3.00;;
6089;SDS011;3073;42.660;23.316;2023-04-15T08:16:50;4.77;;;2.53;;
6089;SDS011;3073;42.660;23.316;2023-04-15T08:19:18;8.33;;;2.83;;
6089;SDS011;3073;42.660;23.316;2023-04-15T08:21:45;3.47;;;2.30;;
6089;SDS011;3073;42.660;23.316;2023-04-15T08:24:12;6.27;;;2.70;;
6089;SDS011;3073;42.660;23.316;2023-04-15T08:26:39;5.70;;;3.00;;
6089;SDS011;3073;42.660;23.316;2023-04-15T08:29:06;12.73;;;3.37;;
6089;SDS011;3073;42.660;23.316;2023-04-15T08:31:33;11.93;;;3.90;;
6089;SDS011;3073;42.660;23.316;2023-04-15T08:34:00;5.20;;;2.60;;
6089;SDS011;3073;42.660;23.316;2023-04-15T08:36:29;7.20;;;2.60;;
6089;SDS011;3073;42.660;23.316;2023-04-15T08:38:56;7.03;;;3.27;;
6089;SDS011;3073;42.660;23.316;2023-04-15T08:41:25;6.80;;;3.03;;
6089;SDS011;3073;42.660;23.316;2023-04-15T08:44:00;6.43;;;3.30;;
6089;SDS011;3073;42.660;23.316;2023-04-15T08:46:29;10.87;;;3.43;;
6089;SDS011;3073;42.660;23.316;2023-04-15T08:48:58;10.50;;;3.50;;
6089;SDS011;3073;42.660;23.316;2023-04-15T08:51:25;5.90;;;2.80;;
6089;SDS011;3073;42.660;23.316;2023-04-15T08:53:56;4.87;;;2.17;;
6089;SDS011;3073;42.660;23.316;2023-04-15T08:56:24;7.63;;;2.03;;
6089;SDS011;3073;42.660;23.316;2023-04-15T08:58:51;2.90;;;1.33;;
6089;SDS011;3073;42.660;23.316;2023-04-15T09:01:18;3.20;;;1.57;;
6089;SDS011;3073;42.660;23.316;2023-04-15T09:04:02;2.63;;;1.47;;
6089;SDS011;3073;42.660;23.316;2023-04-15T09:06:30;2.83;;;1.23;;
6089;SDS011;3073;42.660;23.316;2023-04-15T09:08:58;2.20;;;1.00;;
6089;SDS011;3073;42.660;23.316;2023-04-15T09:11:28;2.77;;;1.10;;
6089;SDS011;3073;42.660;23.316;2023-04-15T09:13:56;8.93;;;2.70;;
6089;SDS011;3073;42.660;23.316;2023-04-15T09:16:23;8.43;;;3.60;;
6089;SDS011;3073;42.660;23.316;2023-04-15T09:18:50;4.27;;;2.50;;
6089;SDS011;3073;42.660;23.316;2023-04-15T09:21:17;13.83;;;2.93;;
6089;SDS011;3073;42.660;23.316;2023-04-15T09:23:53;3.83;;;2.43;;
6089;SDS011;3073;42.660;23.316;2023-04-15T09:26:30;10.97;;;3.00;;
6089;SDS011;3073;42.660;23.316;2023-04-15T09:29:04;6.40;;;2.73;;
6089;SDS011;3073;42.660;23.316;2023-04-15T09:31:34;6.03;;;2.00;;
6089;SDS011;3073;42.660;23.316;2023-04-15T09:34:02;9.13;;;1.73;;
6089;SDS011;3073;42.660;23.316;2023-04-15T09:36:29;3.17;;;1.87;;
6089;SDS011;3073;42.660;23.316;2023-04-15T09:39:02;4.73;;;1.90;;
6089;SDS011;3073;42.660;23.316;2023-04-15T09:41:31;11.63;;;1.77;;
6089;SDS011;3073;42.660;23.316;2023-04-15T09:43:58;2.97;;;1.30;;
6089;SDS011;3073;42.660;23.316;2023-04-15T09:46:39;3.63;;;1.07;;
6089;SDS011;3073;42.660;23.316;2023-04-15T09:49:07;2.40;;;0.93;;
6089;SDS011;3073;42.660;23.316;2023-04-15T09:51:35;2.53;;;1.00;;
6089;SDS011;3073;42.660;23.316;2023-04-15T09:54:02;2.50;;;1.13;;
6089;SDS011;3073;42.660;23.316;2023-04-15T09:56:33;2.63;;;1.00;;
6089;SDS011;3073;42.660;23.316;2023-04-15T09:59:01;2.57;;;0.80;;
6089;SDS011;3073;42.660;23.316;2023-04-15T10:01:28;2.00;;;1.00;;
6089;SDS011;3073;42.660;23.316;2023-04-15T10:03:56;7.17;;;1.97;;
6089;SDS011;3073;42.660;23.316;2023-04-15T10:06:24;6.60;;;2.13;;
6089;SDS011;3073;42.660;23.316;2023-04-15T10:08:52;6.87;;;1.50;;
6089;SDS011;3073;42.660;23.316;2023-04-15T10:11:19;6.03;;;2.07;;
6089;SDS011;3073;42.660;23.316;2023-04-15T10:13:49;4.10;;;1.20;;
6089;SDS011;3073;42.660;23.316;2023-04-15T10:16:18;11.60;;;2.10;;
6089;SDS011;3073;42.660;23.316;2023-04-15T10:18:46;3.73;;;1.30;;
6089;SDS011;3073;42.660;23.316;2023-04-15T10:21:16;3.20;;;1.30;;
6089;SDS011;3073;42.660;23.316;2023-04-15T10:23:44;5.67;;;1.90;;
6089;SDS011;3073;42.660;23.316;2023-04-15T10:26:12;3.27;;;1.57;;
6089;SDS011;3073;42.660;23.316;2023-04-15T10:28:39;3.10;;;1.10;;
6089;SDS011;3073;42.660;23.316;2023-04-15T10:31:08;1.77;;;1.00;;
6089;SDS011;3073;42.660;23.316;2023-04-15T10:33:39;1.77;;;1.10;;
6089;SDS011;3073;42.660;23.316;2023-04-15T10:36:08;3.43;;;1.23;;
6089;SDS011;3073;42.660;23.316;2023-04-15T10:38:36;5.07;;;1.37;;
6089;SDS011;3073;42.660;23.316;2023-04-15T10:41:14;4.07;;;1.60;;
6089;SDS011;3073;42.660;23.316;2023-04-15T10:43:49;3.10;;;1.20;;
6089;SDS011;3073;42.660;23.316;2023-04-15T10:46:23;4.33;;;1.27;;
6089;SDS011;3073;42.660;23.316;2023-04-15T10:49:05;2.47;;;0.90;;
6089;SDS011;3073;42.660;23.316;2023-04-15T10:51:34;8.77;;;2.67;;
6089;SDS011;3073;42.660;23.316;2023-04-15T10:54:07;4.90;;;1.37;;
6089;SDS011;3073;42.660;23.316;2023-04-15T10:56:35;4.47;;;1.17;;
6089;SDS011;3073;42.660;23.316;2023-04-15T10:59:04;7.37;;;1.70;;
6089;SDS011;3073;42.660;23.316;2023-04-15T11:01:52;1.70;;;1.27;;
6089;SDS011;3073;42.660;23.316;2023-04-15T11:07:32;3.50;;;1.70;;
6089;SDS011;3073;42.660;23.316;2023-04-15T11:10:00;3.53;;;1.53;;
6089;SDS011;3073;42.660;23.316;2023-04-15T11:12:32;4.50;;;1.13;;
6089;SDS011;3073;42.660;23.316;2023-04-15T11:17:54;2.30;;;1.43;;
6089;SDS011;3073;42.660;23.316;2023-04-15T11:20:22;2.63;;;1.00;;
6089;SDS011;3073;42.660;23.316;2023-04-15T11:22:49;2.97;;;1.30;;
6089;SDS011;3073;42.660;23.316;2023-04-15T11:25:22;2.30;;;0.97;;
6089;SDS011;3073;42.660;23.316;2023-04-15T11:27:50;3.37;;;1.20;;
6089;SDS011;3073;42.660;23.316;2023-04-15T11:30:20;2.57;;;1.13;;
6089;SDS011;3073;42.660;23.316;2023-04-15T11:32:48;3.73;;;1.33;;
6089;SDS011;3073;42.660;23.316;2023-04-15T11:35:16;3.20;;;1.73;;
6089;SDS011;3073;42.660;23.316;2023-04-15T11:37:44;5.80;;;1.97;;
6089;SDS011;3073;42.660;23.316;2023-04-15T11:40:12;9.03;;;1.90;;
6089;SDS011;3073;42.660;23.316;2023-04-15T11:42:41;8.50;;;2.27;;
6089;SDS011;3073;42.660;23.316;2023-04-15T11:45:09;3.63;;;1.60;;
6089;SDS011;3073;42.660;23.316;2023-04-15T11:47:37;4.10;;;1.13;;
6089;SDS011;3073;42.660;23.316;2023-04-15T11:50:14;2.73;;;1.00;;
6089;SDS011;3073;42.660;23.316;2023-04-15T11:52:53;2.60;;;0.90;;
6089;SDS011;3073;42.660;23.316;2023-04-15T11:55:20;3.47;;;0.97;;
6089;SDS011;3073;42.660;23.316;2023-04-15T11:58:04;2.70;;;1.10;;
6089;SDS011;3073;42.660;23.316;2023-04-15T12:00:32;2.87;;;0.80;;
6089;SDS011;3073;42.660;23.316;2023-04-15T12:08:58;1.90;;;0.70;;
6089;SDS011;3073;42.660;23.316;2023-04-15T12:11:33;2.53;;;1.20;;
6089;SDS011;3073;42.660;23.316;2023-04-15T12:14:02;5.40;;;1.20;;
6089;SDS011;3073;42.660;23.316;2023-04-15T12:16:32;6.67;;;2.47;;
6089;SDS011;3073;42.660;23.316;2023-04-15T12:19:03;1.70;;;1.03;;
6089;SDS011;3073;42.660;23.316;2023-04-15T12:21:34;2.53;;;1.00;;
6089;SDS011;3073;42.660;23.316;2023-04-15T12:24:03;1.30;;;0.70;;
6089;SDS011;3073;42.660;23.316;2023-04-15T12:26:33;8.93;;;2.70;;
6089;SDS011;3073;42.660;23.316;2023-04-15T12:29:02;9.03;;;2.37;;
6089;SDS011;3073;42.660;23.316;2023-04-15T12:31:29;3.37;;;1.60;;
6089;SDS011;3073;42.660;23.316;2023-04-15T12:33:56;4.53;;;2.47;;
6089;SDS011;3073;42.660;23.316;2023-04-15T12:36:24;5.37;;;1.10;;
6089;SDS011;3073;42.660;23.316;2023-04-15T12:38:53;4.13;;;0.80;;
6089;SDS011;3073;42.660;23.316;2023-04-15T12:41:20;5.23;;;1.10;;
6089;SDS011;3073;42.660;23.316;2023-04-15T12:43:48;7.40;;;1.50;;
6089;SDS011;3073;42.660;23.316;2023-04-15T12:46:15;3.00;;;0.90;;
6089;SDS011;3073;42.660;23.316;2023-04-15T12:48:43;2.20;;;1.00;;
6089;SDS011;3073;42.660;23.316;2023-04-15T12:51:09;5.07;;;1.10;;
6089;SDS011;3073;42.660;23.316;2023-04-15T12:53:36;6.73;;;1.73;;
6089;SDS011;3073;42.660;23.316;2023-04-15T12:56:05;2.87;;;1.30;;
6089;SDS011;3073;42.660;23.316;2023-04-15T12:58:32;5.07;;;1.63;;
6089;SDS011;3073;42.660;23.316;2023-04-15T13:00:59;3.83;;;1.37;;
6089;SDS011;3073;42.660;23.316;2023-04-15T13:03:25;2.53;;;0.87;;
6089;SDS011;3073;42.660;23.316;2023-04-15T13:05:52;4.33;;;2.10;;
6089;SDS011;3073;42.660;23.316;2023-04-15T13:08:19;3.20;;;1.10;;
6089;SDS011;3073;42.660;23.316;2023-04-15T13:10:46;3.20;;;0.80;;
6089;SDS011;3073;42.660;23.316;2023-04-15T13:13:14;11.00;;;2.07;;
6089;SDS011;3073;42.660;23.316;2023-04-15T13:15:41;3.17;;;1.00;;
6089;SDS011;3073;42.660;23.316;2023-04-15T13:18:09;2.43;;;0.90;;
6089;SDS011;3073;42.660;23.316;2023-04-15T13:20:37;3.00;;;1.00;;
6089;SDS011;3073;42.660;23.316;2023-04-15T13:23:04;2.13;;;1.07;;
6089;SDS011;3073;42.660;23.316;2023-04-15T13:25:30;2.07;;;1.03;;
6089;SDS011;3073;42.660;23.316;2023-04-15T13:27:57;3.30;;;1.10;;
6089;SDS011;3073;42.660;23.316;2023-04-15T13:30:26;5.70;;;1.67;;
6089;SDS011;3073;42.660;23.316;2023-04-15T13:32:53;1.77;;;1.10;;
6089;SDS011;3073;42.660;23.316;2023-04-15T13:35:20;2.30;;;0.73;;
6089;SDS011;3073;42.660;23.316;2023-04-15T13:37:47;3.27;;;1.77;;
6089;SDS011;3073;42.660;23.316;2023-04-15T13:40:14;9.73;;;1.63;;
6089;SDS011;3073;42.660;23.316;2023-04-15T13:42:41;1.50;;;0.90;;
6089;SDS011;3073;42.660;23.316;2023-04-15T13:45:08;1.93;;;0.80;;
6089;SDS011;3073;42.660;23.316;2023-04-15T13:47:37;1.63;;;0.73;;
6089;SDS011;3073;42.660;23.316;2023-04-15T13:50:04;2.70;;;1.50;;
6089;SDS011;3073;42.660;23.316;2023-04-15T13:52:31;2.60;;;1.00;;
6089;SDS011;3073;42.660;23.316;2023-04-15T13:54:58;3.77;;;1.20;;
6089;SDS011;3073;42.660;23.316;2023-04-15T13:57:25;6.17;;;0.90;;
6089;SDS011;3073;42.660;23.316;2023-04-15T13:59:52;3.80;;;0.80;;
6089;SDS011;3073;42.660;23.316;2023-04-15T14:02:19;2.33;;;1.07;;
6089;SDS011;3073;42.660;23.316;2023-04-15T14:04:49;2.50;;;1.10;;
6089;SDS011;3073;42.660;23.316;2023-04-15T14:07:16;2.03;;;0.90;;
6089;SDS011;3073;42.660;23.316;2023-04-15T14:09:43;4.27;;;0.87;;
6089;SDS011;3073;42.660;23.316;2023-04-15T14:12:10;2.90;;;0.90;;
6089;SDS011;3073;42.660;23.316;2023-04-15T14:14:37;2.07;;;0.97;;
6089;SDS011;3073;42.660;23.316;2023-04-15T14:17:04;1.93;;;1.07;;
6089;SDS011;3073;42.660;23.316;2023-04-15T14:19:31;2.50;;;0.90;;
6089;SDS011;3073;42.660;23.316;2023-04-15T14:21:59;2.90;;;1.23;;
6089;SDS011;3073;42.660;23.316;2023-04-15T14:24:27;1.90;;;1.00;;
6089;SDS011;3073;42.660;23.316;2023-04-15T14:26:54;1.73;;;1.10;;
6089;SDS011;3073;42.660;23.316;2023-04-15T14:29:21;3.90;;;1.00;;
6089;SDS011;3073;42.660;23.316;2023-04-15T14:31:48;2.80;;;1.10;;
6089;SDS011;3073;42.660;23.316;2023-04-15T14:34:15;2.93;;;1.00;;
6089;SDS011;3073;42.660;23.316;2023-04-15T14:36:42;2.30;;;1.20;;
6089;SDS011;3073;42.660;23.316;2023-04-15T14:39:11;5.43;;;1.40;;
6089;SDS011;3073;42.660;23.316;2023-04-15T14:41:39;7.77;;;1.20;;
6089;SDS011;3073;42.660;23.316;2023-04-15T14:44:06;1.83;;;0.80;;
6089;SDS011;3073;42.660;23.316;2023-04-15T14:46:35;2.50;;;0.87;;
6089;SDS011;3073;42.660;23.316;2023-04-15T14:49:02;2.53;;;0.90;;
6089;SDS011;3073;42.660;23.316;2023-04-15T14:51:30;5.20;;;1.00;;
6089;SDS011;3073;42.660;23.316;2023-04-15T14:53:57;2.13;;;0.90;;
6089;SDS011;3073;42.660;23.316;2023-04-15T14:56:25;3.93;;;0.97;;
6089;SDS011;3073;42.660;23.316;2023-04-15T14:58:52;3.40;;;1.00;;
6089;SDS011;3073;42.660;23.316;2023-04-15T15:01:19;2.43;;;1.10;;
6089;SDS011;3073;42.660;23.316;2023-04-15T15:03:46;5.43;;;0.90;;
6089;SDS011;3073;42.660;23.316;2023-04-15T15:06:13;2.40;;;1.03;;
6089;SDS011;3073;42.660;23.316;2023-04-15T15:08:40;1.87;;;1.03;;
6089;SDS011;3073;42.660;23.316;2023-04-15T15:11:06;4.33;;;1.20;;
6089;SDS011;3073;42.660;23.316;2023-04-15T15:13:35;5.30;;;1.03;;